Time;durP1;ratioP1;P1;durP2;ratioP2;P2;SDS_P1;SDS_P2;PMS_P1;PMS_P2;Temp;Humidity;BMP_temperature;BMP_pressure;BME280_temperature;BME280_humidity;BME280_pressure;Samples;Min_cycle;Max_cycle;Signal;HPM_P1;HPM_P2
2022/06/22 00:01:19;;;;;;;9.00;3.33;;;;;;;-148.88;66.38;75176.03;5034841;28;20025;-76
2022/06/22 00:03:50;;;;;;;9.00;2.92;;;;;;;-148.88;66.76;75192.28;5030717;28;20029;-76
2022/06/22 00:06:25;;;;;;;6.43;3.40;;;;;;;-148.88;66.98;75184.16;5035233;28;20052;-76
2022/06/22 00:08:52;;;;;;;6.75;3.30;;;;;;;-148.88;67.46;75184.16;5035073;28;20108;-76
2022/06/22 00:11:18;;;;;;;5.35;3.35;;;;;;;-148.88;67.66;75188.22;5033764;28;20120;-77
2022/06/22 00:13:55;;;;;;;5.70;3.00;;;;;;;-148.88;67.49;75184.16;5034916;28;20036;-76
2022/06/22 00:16:30;;;;;;;5.70;3.05;;;;;;;-148.88;68.68;75184.16;5034487;28;20056;-76
2022/06/22 00:18:57;;;;;;;7.95;3.55;;;;;;;-148.88;69.61;75196.34;5034616;28;20036;-76
2022/06/22 00:21:33;;;;;;;6.82;3.40;;;;;;;-148.88;69.91;75208.53;5034992;28;20394;-76
2022/06/22 00:24:01;;;;;;;6.28;3.45;;;;;;;-148.88;70.10;75206.50;5035033;28;20032;-76
2022/06/22 00:26:31;;;;;;;6.03;3.80;;;;;;;-148.88;69.99;75216.66;5042219;28;20085;-76
2022/06/22 00:29:00;;;;;;;5.32;3.50;;;;;;;-148.88;70.13;75202.44;5054535;28;20026;-76
2022/06/22 00:32:00;;;;;;;6.13;3.45;;;;;;;-148.88;70.38;75208.53;5045049;28;20027;-76
2022/06/22 00:34:32;;;;;;;8.10;3.63;;;;;;;-148.88;70.96;75226.81;5030268;28;20033;-76
2022/06/22 00:37:13;;;;;;;7.28;3.42;;;;;;;-148.88;72.28;75241.03;5034724;28;20028;-76
2022/06/22 00:39:43;;;;;;;8.63;3.50;;;;;;;-148.88;72.80;75232.91;5034482;28;20029;-76
2022/06/22 00:42:14;;;;;;;6.85;3.75;;;;;;;-148.88;72.86;75224.78;5034212;28;20021;-76
2022/06/22 00:45:13;;;;;;;6.95;3.42;;;;;;;-148.88;72.85;75230.88;5033027;28;20032;-76
2022/06/22 00:47:44;;;;;;;9.88;3.85;;;;;;;-148.88;74.83;75249.16;5034201;28;20403;-76
2022/06/22 00:50:09;;;;;;;7.65;3.60;;;;;;;-148.88;75.70;75249.16;5034244;28;20025;-76
2022/06/22 00:52:41;;;;;;;5.80;3.55;;;;;;;-148.88;75.03;75243.06;5034222;28;20027;-76
2022/06/22 00:55:25;;;;;;;7.68;4.10;;;;;;;-148.88;75.35;75241.03;5032897;28;20047;-76
2022/06/22 00:58:04;;;;;;;;;;;;;;;-148.88;76.72;75265.41;5034766;28;20115;-76
2022/06/22 01:00:33;;;;;;;7.65;4.38;;;;;;;-148.88;77.36;75273.53;5032860;28;19948;-76
2022/06/22 01:03:13;;;;;;;9.90;4.22;;;;;;;-148.88;77.55;75265.41;5034170;28;20025;-76
2022/06/22 01:05:46;;;;;;;8.10;3.85;;;;;;;-148.88;78.16;75279.59;5033981;28;20028;-76
2022/06/22 01:08:54;;;;;;;6.57;4.10;;;;;;;-148.88;78.43;75269.47;5033953;28;20037;-76
2022/06/22 01:14:50;;;;;;;8.65;4.28;;;;;;;-148.88;78.79;75273.53;5033804;28;20036;-76
2022/06/22 01:17:20;;;;;;;6.07;4.07;;;;;;;-148.88;79.09;75281.66;5049192;28;20052;-76
2022/06/22 01:19:50;;;;;;;7.07;4.40;;;;;;;-148.88;79.42;75289.75;5034582;28;20086;-76
2022/06/22 01:22:31;;;;;;;6.72;4.05;;;;;;;-148.88;80.11;75297.88;5039511;22;20092;-81
2022/06/22 01:25:12;;;;;;;6.57;4.15;;;;;;;-148.88;80.97;75306.00;5012252;28;20080;-82
2022/06/22 01:27:41;;;;;;;7.75;4.43;;;;;;;-148.88;79.81;75310.06;5012761;28;20519;-81
2022/06/22 01:30:23;;;;;;;7.82;3.85;;;;;;;-148.88;79.86;75312.09;5012139;28;20376;-82
2022/06/22 01:32:49;;;;;;;7.10;3.67;;;;;;;-148.88;79.88;75316.16;5013608;28;20488;-81
2022/06/22 01:35:20;;;;;;;7.47;4.00;;;;;;;-148.88;80.85;75318.19;5014117;28;20034;-82
2022/06/22 01:37:46;;;;;;;7.25;4.22;;;;;;;-148.88;80.96;75326.31;5012304;28;20104;-82
2022/06/22 01:40:18;;;;;;;6.13;4.07;;;;;;;-148.88;80.72;75330.38;5014095;28;20064;-81
2022/06/22 01:42:50;;;;;;;9.77;4.18;;;;;;;-148.88;81.31;75330.38;5013238;28;20036;-81
2022/06/22 01:45:39;;;;;;;5.85;3.92;;;;;;;-148.88;81.11;75330.38;5013065;28;20065;-81
2022/06/22 01:48:14;;;;;;;7.85;4.53;;;;;;;-148.88;80.89;75330.38;5014005;28;20026;-82
2022/06/22 01:50:54;;;;;;;8.82;4.75;;;;;;;-148.88;81.25;75326.31;5011003;28;20026;-81
2022/06/22 01:53:35;;;;;;;6.85;4.20;;;;;;;-148.88;80.83;75334.44;5010899;28;20026;-82
2022/06/22 01:56:16;;;;;;;7.47;4.05;;;;;;;-148.88;80.75;75334.44;5014536;28;20034;-81
2022/06/22 01:58:55;;;;;;;6.53;4.28;;;;;;;-148.88;81.40;75354.75;5012337;28;20061;-81
2022/06/22 02:01:38;;;;;;;6.25;4.30;;;;;;;-148.88;81.85;75350.69;5011132;28;20025;-82
2022/06/22 02:04:27;;;;;;;6.63;4.57;;;;;;;-148.88;81.38;75342.56;5012265;28;20026;-81
2022/06/22 02:10:24;;;;;;;10.68;4.40;;;;;;;-148.88;81.28;75350.69;5012745;28;20041;-81
2022/06/22 02:13:08;;;;;;;7.00;4.43;;;;;;;-148.88;81.46;75358.81;4947671;28;20088;-81
2022/06/22 02:15:39;;;;;;;;;;;;;;;-148.88;81.63;75366.94;5028873;28;20053;-81
2022/06/22 02:18:32;;;;;;;9.68;4.28;;;;;;;-148.88;82.21;75377.09;5012648;28;19909;-82
2022/06/22 02:21:15;;;;;;;10.30;4.63;;;;;;;-148.88;82.37;75385.22;4977707;28;1007646;-82
2022/06/22 02:23:41;;;;;;;7.18;4.32;;;;;;;-148.88;82.32;75389.28;5015044;28;20034;-81
2022/06/22 02:29:43;;;;;;;6.82;4.40;;;;;;;-148.88;82.50;75403.50;5013087;28;20080;-81
2022/06/22 02:32:13;;;;;;;7.57;4.22;;;;;;;-148.88;82.08;75407.56;5013126;28;20026;-81
2022/06/22 02:34:42;;;;;;;7.53;3.90;;;;;;;-148.88;82.47;75413.66;5013221;28;20030;-81
2022/06/22 02:37:10;;;;;;;9.63;4.47;;;;;;;-148.88;82.80;75440.06;5014375;28;20057;-82
2022/06/22 02:39:44;;;;;;;6.80;4.57;;;;;;;-148.88;85.89;75490.84;5015933;28;20057;-81
2022/06/22 02:44:55;;;;;;;9.65;5.13;;;;;;;-148.88;86.06;75464.44;5018360;28;20499;-81
2022/06/22 02:47:22;;;;;;;7.32;4.70;;;;;;;-148.88;85.37;75442.09;5017341;28;20026;-82
2022/06/22 02:49:55;;;;;;;7.90;4.57;;;;;;;-148.88;84.49;75436.00;5018060;28;20124;-81
2022/06/22 02:52:25;;;;;;;13.30;5.13;;;;;;;-148.88;85.44;75448.19;5014942;28;20033;-82
2022/06/22 02:54:59;;;;;;;7.47;5.05;;;;;;;-148.88;85.61;75456.31;5017281;28;20030;-81
2022/06/22 02:57:48;;;;;;;7.82;4.93;;;;;;;-148.88;85.50;75464.44;5018093;28;20026;-81
2022/06/22 03:00:19;;;;;;;13.45;5.10;;;;;;;-148.88;86.20;75494.91;5017056;28;20492;-82
2022/06/22 03:02:47;;;;;;;7.50;5.00;;;;;;;-148.88;89.37;75553.81;5016433;28;20033;-80
2022/06/22 03:05:14;;;;;;;8.73;5.68;;;;;;;-148.88;90.95;75563.97;5014881;28;20021;-82
2022/06/22 03:07:43;;;;;;;12.00;5.80;;;;;;;-148.88;90.92;75561.94;5014183;28;20087;-81
2022/06/22 03:10:38;;;;;;;9.35;5.70;;;;;;;-148.88;91.50;75578.19;5015877;28;20022;-81
2022/06/22 03:13:03;;;;;;;7.38;5.40;;;;;;;-148.88;91.54;75584.25;5014460;28;20141;-81
2022/06/22 03:15:32;;;;;;;9.48;5.80;;;;;;;-148.88;90.95;75566.00;5016186;28;20131;-81
2022/06/22 03:17:59;;;;;;;9.90;5.40;;;;;;;-148.88;90.07;75549.75;5015710;28;20022;-82
2022/06/22 03:20:31;;;;;;;8.48;5.20;;;;;;;-148.88;89.08;75545.69;5016078;28;20022;-81
2022/06/22 03:23:12;;;;;;;8.23;5.35;;;;;;;-148.88;89.26;75549.75;5015944;28;20029;-82
2022/06/22 03:25:43;;;;;;;8.25;5.55;;;;;;;-148.88;89.13;75523.34;5031659;28;20026;-81
2022/06/22 03:28:15;;;;;;;7.85;4.88;;;;;;;-148.88;88.09;75515.22;5031602;28;20041;-81
2022/06/22 03:30:51;;;;;;;9.15;5.07;;;;;;;-148.88;87.57;75509.13;5016004;28;20029;-81
2022/06/22 03:33:25;;;;;;;5.57;4.70;;;;;;;-148.88;87.55;75509.13;5016514;28;20392;-82
2022/06/22 03:35:55;;;;;;;;;;;;;;;-148.88;87.83;75525.38;5032714;28;20025;-82
2022/06/22 03:38:25;;;;;;;9.70;6.20;;;;;;;-148.88;89.14;75549.75;5015345;28;19916;-82
2022/06/22 03:41:18;;;;;;;8.15;5.55;;;;;;;-148.88;90.19;75557.88;5016384;28;20030;-82
2022/06/22 03:43:53;;;;;;;8.10;5.65;;;;;;;-148.88;90.21;75557.88;5015674;28;20065;-81
2022/06/22 03:46:30;;;;;;;7.60;5.18;;;;;;;-148.88;89.41;75537.56;5015699;28;20030;-82
2022/06/22 03:49:03;;;;;;;6.78;5.20;;;;;;;-148.88;88.90;75533.50;5015358;28;20030;-81
2022/06/22 03:51:57;;;;;;;6.80;5.15;;;;;;;-148.88;88.43;75529.44;5016299;28;20049;-82
2022/06/22 03:54:32;;;;;;;9.00;5.00;;;;;;;-148.88;88.08;75509.13;5014792;28;20091;-81
2022/06/22 03:57:01;;;;;;;10.13;5.65;;;;;;;-148.88;87.28;75501.00;5016098;28;20050;-82
2022/06/22 03:59:27;;;;;;;7.80;5.30;;;;;;;-148.88;87.02;75501.00;5015571;28;20068;-82
2022/06/22 04:01:56;;;;;;;8.07;5.10;;;;;;;-148.88;86.77;75498.97;5014278;28;20038;-82
2022/06/22 04:04:23;;;;;;;7.88;5.50;;;;;;;-148.88;86.74;75515.22;5015355;28;20065;-81
2022/06/22 04:06:53;;;;;;;8.38;5.68;;;;;;;-148.88;87.30;75509.13;5015681;28;20077;-82
2022/06/22 04:09:21;;;;;;;7.25;4.95;;;;;;;-148.88;87.32;75507.09;5016342;28;20077;-81
2022/06/22 04:12:06;;;;;;;8.52;5.32;;;;;;;-148.88;87.12;75503.03;5016641;28;20025;-82
2022/06/22 04:14:43;;;;;;;7.18;4.85;;;;;;;-148.88;87.42;75509.13;5014956;28;20081;-81
2022/06/22 04:17:23;;;;;;;7.43;5.28;;;;;;;-148.88;87.28;75509.13;5015601;28;20469;-82
2022/06/22 04:20:09;;;;;;;8.07;5.20;;;;;;;-148.88;87.10;75501.00;5015081;28;20053;-82
2022/06/22 04:22:39;;;;;;;8.65;5.70;;;;;;;-148.88;87.12;75507.09;5013457;28;20045;-80
2022/06/22 04:25:18;;;;;;;8.90;4.85;;;;;;;-148.88;87.17;75503.03;5013642;28;20044;-82
2022/06/22 04:27:48;;;;;;;9.35;4.68;;;;;;;-148.88;86.84;75507.09;5014315;28;20052;-83
2022/06/22 04:30:19;;;;;;;8.15;4.75;;;;;;;-148.88;86.94;75505.06;5014621;28;20040;-83
2022/06/22 04:32:56;;;;;;;6.88;4.38;;;;;;;-148.88;86.92;75501.00;5013861;28;20491;-83
2022/06/22 04:35:33;;;;;;;5.93;4.22;;;;;;;-148.88;86.36;75501.00;5029322;28;20037;-84
2022/06/22 04:38:08;;;;;;;6.53;4.10;;;;;;;-148.88;86.08;75496.94;5013193;28;20018;-85
2022/06/22 04:40:52;;;;;;;8.18;4.10;;;;;;;-148.88;85.51;75488.81;5014557;28;20026;-84
2022/06/22 04:43:17;;;;;;;;;;;;;;;-148.88;85.11;75480.69;5014947;28;20480;-84
2022/06/22 04:45:45;;;;;;;7.25;4.35;;;;;;;-148.88;83.43;75478.66;5014573;28;19917;-81
2022/06/22 04:48:31;;;;;;;6.93;3.65;;;;;;;-148.88;83.28;75480.69;5013420;28;20025;-83
2022/06/22 04:51:01;;;;;;;6.60;3.85;;;;;;;-148.88;82.99;75472.56;5014514;28;20025;-83
2022/06/22 04:53:32;;;;;;;6.47;3.63;;;;;;;-148.88;82.18;75460.38;5014467;28;20022;-82
2022/06/22 04:56:11;;;;;;;5.47;3.42;;;;;;;-148.88;81.75;75460.38;5014771;28;20476;-83
2022/06/22 04:58:44;;;;;;;6.32;3.50;;;;;;;-148.88;81.76;75472.56;5014692;28;20076;-83
2022/06/22 05:01:21;;;;;;;5.72;3.22;;;;;;;-148.88;82.10;75474.59;5029108;28;20022;-83
2022/06/22 05:03:46;;;;;;;6.20;3.55;;;;;;;-148.88;82.70;75462.41;5012578;28;20030;-83
2022/06/22 05:06:19;;;;;;;7.20;3.33;;;;;;;-148.88;81.18;75454.28;5029659;28;20075;-83
2022/06/22 05:09:06;;;;;;;5.57;3.85;;;;;;;-148.88;80.49;75446.16;5013550;28;20017;-83
2022/06/22 05:11:39;;;;;;;6.18;3.47;;;;;;;-148.88;80.00;75440.06;5015106;28;20045;-83
2022/06/22 05:14:13;;;;;;;5.15;3.50;;;;;;;-148.88;80.00;75425.84;5016085;28;20484;-83
2022/06/22 05:16:39;;;;;;;7.53;3.20;;;;;;;-148.88;78.65;75411.63;5014364;28;20120;-84
2022/06/22 05:19:08;;;;;;;6.63;3.10;;;;;;;-148.88;78.57;75411.63;5013521;28;20113;-83
2022/06/22 05:21:41;;;;;;;5.60;3.10;;;;;;;-148.88;79.42;75411.63;5013779;28;20117;-83
2022/06/22 05:24:09;;;;;;;7.00;2.88;;;;;;;-148.88;77.45;75399.44;5014346;28;20018;-83
2022/06/22 05:26:36;;;;;;;7.03;3.50;;;;;;;-148.88;79.40;75395.38;5014553;28;20520;-83
2022/06/22 05:29:12;;;;;;;6.82;3.15;;;;;;;-148.88;78.75;75393.34;5013741;28;20026;-83
2022/06/22 05:31:42;;;;;;;3.67;2.70;;;;;;;-148.88;78.38;75391.31;5014213;28;20038;-83
2022/06/22 05:34:12;;;;;;;4.15;2.67;;;;;;;-148.88;77.04;75395.38;5015000;28;20475;-84
2022/06/22 05:36:45;;;;;;;4.25;2.72;;;;;;;-148.88;76.47;75379.13;5013820;28;20026;-84
2022/06/22 05:39:11;;;;;;;5.78;3.30;;;;;;;-148.88;76.29;75371.00;5012682;28;20045;-83
2022/06/22 05:41:40;;;;;;;4.32;2.65;;;;;;;-148.88;77.10;75371.00;5028791;28;20030;-84
2022/06/22 05:44:11;;;;;;;6.55;2.45;;;;;;;-148.88;76.50;75360.84;5014090;28;20030;-84
2022/06/22 05:46:38;;;;;;;3.75;2.30;;;;;;;-148.88;76.10;75342.56;5012849;28;20495;-83
2022/06/22 05:49:06;;;;;;;6.15;2.17;;;;;;;-148.88;74.83;75334.44;5013149;28;20018;-84
2022/06/22 05:51:52;;;;;;;6.85;2.20;;;;;;;-148.88;74.52;75330.38;5012289;28;20029;-84
2022/06/22 05:54:24;;;;;;;6.88;2.50;;;;;;;-148.88;72.33;75306.00;5014421;28;20029;-84
2022/06/22 05:57:10;;;;;;;5.32;2.67;;;;;;;-148.88;72.64;75299.91;5014270;28;20022;-83
2022/06/22 05:59:52;;;;;;;6.72;2.58;;;;;;;-148.88;71.90;75301.94;4999782;28;20041;-83
2022/06/22 06:02:35;;;;;;;5.68;2.20;;;;;;;-148.88;70.44;75269.47;5013744;28;20117;-84
2022/06/22 06:05:35;;;;;;;6.63;1.80;;;;;;;-148.88;68.66;75228.84;5013830;28;20105;-84
2022/06/22 06:08:06;;;;;;;4.10;1.60;;;;;;;-148.88;67.35;75216.66;5012171;28;20026;-84
2022/06/22 06:10:36;;;;;;;7.97;2.22;;;;;;;-148.88;65.61;75188.22;5013302;28;20544;-84
2022/06/22 06:13:18;;;;;;;4.05;1.50;;;;;;;-148.88;64.33;75198.38;5014265;28;20040;-82
2022/06/22 06:15:46;;;;;;;3.55;1.65;;;;;;;-148.88;64.99;75194.31;5017353;28;20041;-83
2022/06/22 06:18:16;;;;;;;3.90;1.40;;;;;;;-148.88;64.28;75178.06;5016667;28;20017;-82
2022/06/22 06:20:47;;;;;;;4.97;1.63;;;;;;;-148.88;64.64;75171.97;5017259;28;20056;-83
2022/06/22 06:23:33;;;;;;;3.38;1.67;;;;;;;-148.88;63.71;75153.69;5017187;28;20040;-82
2022/06/22 06:28:59;;;;;;;3.63;1.50;;;;;;;-148.88;62.62;75135.41;5017135;28;20061;-83
2022/06/22 06:31:37;;;;;;;5.82;1.50;;;;;;;-148.88;62.19;75131.34;5017011;28;20029;-82
2022/06/22 06:34:13;;;;;;;3.53;1.40;;;;;;;-148.88;60.30;75115.09;5017130;28;20052;-82
2022/06/22 06:36:49;;;;;;;9.50;1.63;;;;;;;-148.88;59.82;75096.81;5017029;28;20483;-82
2022/06/22 06:39:21;;;;;;;3.70;1.25;;;;;;;-148.88;60.58;75086.69;5017676;28;20440;-83
2022/06/22 06:42:03;;;;;;;2.53;1.20;;;;;;;-148.88;58.07;75062.31;5016811;28;20034;-82
2022/06/22 06:44:31;;;;;;;2.80;1.35;;;;;;;-148.88;58.35;75042.00;5016669;28;20554;-82
2022/06/22 06:47:03;;;;;;;4.05;1.35;;;;;;;-148.88;58.52;75046.06;5017051;28;20025;-83
2022/06/22 06:49:40;;;;;;;5.72;1.33;;;;;;;-148.88;58.22;75001.38;5016800;28;20029;-83
2022/06/22 06:52:20;;;;;;;5.50;1.70;;;;;;;-148.88;57.61;74997.31;5016654;28;20030;-83
2022/06/22 06:54:55;;;;;;;2.90;1.33;;;;;;;-148.88;57.81;74983.09;5017599;28;20022;-83
2022/06/22 06:57:22;;;;;;;4.57;1.33;;;;;;;-148.88;57.17;74960.75;5016685;28;20025;-83
2022/06/22 06:59:54;;;;;;;4.18;1.50;;;;;;;-148.88;57.78;74952.63;5031457;28;20018;-83
2022/06/22 07:02:36;;;;;;;4.30;1.23;;;;;;;-148.88;56.62;74946.53;5016435;28;20026;-83
2022/06/22 07:05:05;;;;;;;5.22;1.42;;;;;;;-148.88;56.99;74932.34;5015178;28;20028;-83
2022/06/22 07:07:41;;;;;;;4.05;1.40;;;;;;;-148.88;56.17;74938.44;5016029;28;20038;-82
2022/06/22 07:10:20;;;;;;;2.92;1.35;;;;;;;-148.88;55.81;74914.06;5016537;28;20025;-82
2022/06/22 07:12:56;;;;;;;2.83;1.50;;;;;;;-148.88;55.71;74901.88;5016479;28;20109;-82
2022/06/22 07:15:25;;;;;;;4.00;1.30;;;;;;;-148.88;53.81;74879.53;5016378;28;20026;-83
2022/06/22 07:17:54;;;;;;;4.65;1.60;;;;;;;-148.88;55.62;74875.47;5016010;28;20026;-83
2022/06/22 07:20:28;;;;;;;3.65;1.50;;;;;;;-148.88;55.18;74881.56;5016250;28;20054;-83
2022/06/22 07:23:01;;;;;;;3.60;1.45;;;;;;;-148.88;55.06;74887.66;5045412;23;20042;-84
2022/06/22 07:25:40;;;;;;;4.60;1.50;;;;;;;-148.88;53.10;74879.53;5014609;28;20030;-83
2022/06/22 07:28:21;;;;;;;3.38;1.52;;;;;;;-148.88;56.13;74845.00;5017694;28;20101;-83
2022/06/22 07:30:53;;;;;;;5.03;1.65;;;;;;;-148.88;55.78;74830.78;5017702;28;20365;-83
2022/06/22 07:33:27;;;;;;;4.20;1.90;;;;;;;-148.88;56.41;74830.78;5013831;28;20026;-83
2022/06/22 07:35:59;;;;;;;3.40;1.60;;;;;;;-148.88;55.87;74826.72;5013719;28;20553;-83
2022/06/22 07:38:36;;;;;;;3.13;1.60;;;;;;;-148.88;54.81;74826.72;4997804;28;20025;-84
2022/06/22 07:41:20;;;;;;;4.40;1.70;;;;;;;-148.88;54.13;74800.34;4998974;28;20030;-83
2022/06/22 07:44:00;;;;;;;3.78;1.85;;;;;;;-148.88;53.94;74786.13;4996621;28;20030;-82
2022/06/22 07:47:05;;;;;;;4.57;1.80;;;;;;;-148.88;53.34;74786.13;4997906;28;20372;-82
2022/06/22 07:49:50;;;;;;;3.92;1.50;;;;;;;-148.88;53.74;74769.88;4995123;28;20109;-82
2022/06/22 07:52:20;;;;;;;6.63;2.17;;;;;;;-148.88;53.22;74761.75;4995088;28;20014;-83
2022/06/22 07:54:50;;;;;;;5.07;1.98;;;;;;;-148.88;53.01;74747.53;4995728;28;20045;-83
2022/06/22 07:57:40;;;;;;;4.10;1.90;;;;;;;-148.88;53.04;74737.38;5012989;28;20444;-82
2022/06/22 08:00:12;;;;;;;3.80;1.67;;;;;;;-148.88;52.25;74723.16;4995070;28;20038;-83
2022/06/22 08:03:12;;;;;;;5.85;1.95;;;;;;;-148.88;53.00;74710.97;4997184;28;20381;-84
2022/06/22 08:05:42;;;;;;;5.75;2.00;;;;;;;-148.88;51.22;74710.97;4996590;28;20489;-83
2022/06/22 08:08:26;;;;;;;6.07;1.50;;;;;;;-148.88;51.88;74696.78;4997068;28;20480;-82
2022/06/22 08:11:07;;;;;;;5.05;1.60;;;;;;;-148.88;50.53;74680.53;4996224;28;20440;-83
2022/06/22 08:14:01;;;;;;;4.65;1.80;;;;;;;-148.88;51.22;74684.59;5011515;28;20052;-83
2022/06/22 08:16:32;;;;;;;5.72;1.80;;;;;;;-148.88;50.16;74700.84;4996305;28;20117;-83
2022/06/22 08:19:00;;;;;;;5.57;2.10;;;;;;;-148.88;50.18;74674.44;4994433;28;20042;-84
2022/06/22 08:21:26;;;;;;;5.22;1.70;;;;;;;-148.88;50.45;74668.34;4995008;28;20029;-83
2022/06/22 08:23:53;;;;;;;4.57;1.83;;;;;;;-148.88;51.90;74656.16;4994582;28;20031;-84
2022/06/22 08:26:22;;;;;;;6.57;1.95;;;;;;;-148.88;51.35;74639.91;4995426;28;20026;-83
2022/06/22 08:28:49;;;;;;;5.07;2.15;;;;;;;-148.88;50.94;74648.03;4993543;28;20026;-83
2022/06/22 08:31:15;;;;;;;4.80;1.92;;;;;;;-148.88;51.93;74629.75;4994404;28;20132;-84
2022/06/22 08:33:46;;;;;;;5.72;1.90;;;;;;;-148.88;51.63;74615.53;4994892;28;20023;-83
2022/06/22 08:36:21;;;;;;;5.07;2.20;;;;;;;-148.88;50.18;74613.50;4994895;28;20034;-83
2022/06/22 08:39:15;;;;;;;7.13;2.00;;;;;;;-148.88;51.10;74603.34;4993620;28;20104;-83
2022/06/22 08:41:49;;;;;;;3.70;1.60;;;;;;;-148.88;52.43;74579.00;4994689;28;20045;-84
2022/06/22 08:44:43;;;;;;;5.15;1.70;;;;;;;-148.88;48.73;74574.94;4994836;28;20042;-83
2022/06/22 08:47:17;;;;;;;4.15;1.75;;;;;;;-148.88;49.58;74546.50;4994995;28;20054;-83
2022/06/22 08:50:01;;;;;;;4.82;1.58;;;;;;;-148.88;48.54;74550.56;4995155;28;20106;-83
2022/06/22 08:52:32;;;;;;;8.25;1.80;;;;;;;-148.88;48.63;74542.44;4995757;28;20029;-83
2022/06/22 08:55:22;;;;;;;5.00;1.60;;;;;;;-148.88;50.55;74520.09;4993944;28;20049;-83
2022/06/22 08:58:07;;;;;;;6.70;2.15;;;;;;;-148.88;48.28;74518.06;4993620;28;20060;-83
2022/06/22 09:00:43;;;;;;;3.75;1.67;;;;;;;-148.88;48.55;74493.72;4994183;28;20069;-84
2022/06/22 09:03:15;;;;;;;7.05;2.15;;;;;;;-148.88;46.40;74507.91;5010218;28;20033;-83
2022/06/22 09:06:07;;;;;;;2.88;1.85;;;;;;;-148.88;46.35;74469.34;4994122;28;20072;-84
2022/06/22 09:09:09;;;;;;;3.72;1.60;;;;;;;-148.88;48.40;74473.41;4994458;28;20117;-84
2022/06/22 09:11:54;;;;;;;3.08;1.60;;;;;;;-148.88;48.04;74467.31;4996279;28;20050;-83
2022/06/22 09:14:36;;;;;;;5.68;1.88;;;;;;;-148.88;45.92;74436.84;4996666;28;20420;-83
2022/06/22 09:17:31;;;;;;;4.32;1.65;;;;;;;-148.88;47.61;74457.16;4994615;28;20026;-83
2022/06/22 09:20:23;;;;;;;4.53;1.63;;;;;;;-148.88;47.58;74428.72;4993922;28;20030;-83
2022/06/22 09:22:58;;;;;;;2.63;1.40;;;;;;;-148.88;46.71;74426.69;4994823;28;20497;-83
2022/06/22 09:25:31;;;;;;;5.70;1.58;;;;;;;-148.88;45.51;74436.84;4995010;28;20034;-83
2022/06/22 09:28:22;;;;;;;4.38;1.75;;;;;;;-148.88;45.64;74432.78;4995319;28;20046;-83
2022/06/22 09:31:29;;;;;;;3.17;1.50;;;;;;;-148.88;46.60;74436.84;4993828;28;20153;-83
2022/06/22 09:34:15;;;;;;;4.43;1.70;;;;;;;-148.88;45.45;74457.16;4995565;28;20365;-84
2022/06/22 09:37:09;;;;;;;5.15;1.63;;;;;;;-148.88;46.02;74432.78;4995649;28;20037;-84
2022/06/22 09:39:59;;;;;;;5.97;1.92;;;;;;;-148.88;45.94;74444.97;4994197;28;20476;-83
2022/06/22 09:43:03;;;;;;;6.72;1.65;;;;;;;-148.88;43.85;74412.47;4994111;28;20053;-83
2022/06/22 09:45:28;;;;;;;;;;;;;;;-148.88;44.87;74388.13;4993953;28;20058;-82
2022/06/22 09:48:34;;;;;;;6.45;1.60;;;;;;;-148.88;43.93;74347.50;5012697;28;20004;-83
2022/06/22 09:51:20;;;;;;;5.97;1.70;;;;;;;-148.88;46.74;74319.09;4999504;28;20026;-83
2022/06/22 09:54:04;;;;;;;4.20;1.60;;;;;;;-148.88;45.43;74296.75;5001726;28;20029;-83
2022/06/22 09:57:09;;;;;;;5.55;1.95;;;;;;;-148.88;43.27;74306.91;4999912;28;20031;-85
2022/06/22 10:00:05;;;;;;;5.75;1.70;;;;;;;-148.88;44.54;74272.38;5000586;28;20034;-84
2022/06/22 10:03:08;;;;;;;6.00;1.60;;;;;;;-148.88;41.62;74258.16;4999361;28;20053;-83
2022/06/22 10:05:56;;;;;;;5.60;1.70;;;;;;;-148.88;42.85;74233.81;5000656;28;20033;-84
2022/06/22 10:08:41;;;;;;;3.50;1.60;;;;;;;-148.88;42.18;74209.44;5016077;28;20026;-83
2022/06/22 10:11:22;;;;;;;3.10;1.40;;;;;;;-148.88;42.56;74266.28;5016820;28;20064;-84
2022/06/22 10:14:17;;;;;;;4.15;1.60;;;;;;;-148.88;44.77;74215.53;5001144;28;20081;-83
2022/06/22 10:16:49;;;;;;;6.70;1.70;;;;;;;-148.88;41.39;74193.19;4999994;28;20435;-83
2022/06/22 10:19:27;;;;;;;3.08;1.60;;;;;;;-148.88;41.77;74195.22;5000104;28;20112;-84
2022/06/22 10:22:06;;;;;;;4.32;1.52;;;;;;;-148.88;39.38;74166.81;5000025;28;20030;-85
2022/06/22 10:25:02;;;;;;;5.88;1.52;;;;;;;-148.88;41.36;74114.00;4999979;28;20129;-83
2022/06/22 10:27:47;;;;;;;5.55;1.90;;;;;;;-148.88;38.61;74071.38;5000359;28;20026;-83
2022/06/22 10:30:15;;;;;;;4.32;1.77;;;;;;;-148.88;36.90;74079.50;5000266;28;20026;-83
2022/06/22 10:33:30;;;;;;;3.47;1.40;;;;;;;-148.88;37.81;74040.91;4999595;28;20113;-83
2022/06/22 10:36:29;;;;;;;4.13;1.48;;;;;;;-148.88;36.90;74063.25;4960941;28;20045;-84
2022/06/22 10:39:36;;;;;;;4.38;1.80;;;;;;;-148.88;37.39;74061.22;4999848;28;20049;-83
2022/06/22 10:45:43;;;;;;;6.88;1.65;;;;;;;-148.88;38.57;74071.38;5001388;28;20033;-83
2022/06/22 10:48:50;;;;;;;3.17;1.70;;;;;;;-148.88;37.13;74136.34;4999358;28;20022;-83
2022/06/22 10:51:34;;;;;;;6.75;1.73;;;;;;;-148.88;38.52;74055.13;5001710;28;20110;-83
2022/06/22 10:54:26;;;;;;;4.05;1.70;;;;;;;-148.88;37.77;74099.78;5000038;28;20045;-84
2022/06/22 10:57:23;;;;;;;5.50;1.60;;;;;;;-148.88;38.73;74059.19;5001762;28;20073;-83
2022/06/22 11:00:10;;;;;;;2.85;1.50;;;;;;;-148.88;37.35;74030.75;4996734;28;20023;-84
2022/06/22 11:03:17;;;;;;;4.38;1.70;;;;;;;-148.88;38.39;74000.31;5012475;28;20511;-83
2022/06/22 11:05:51;;;;;;;4.13;1.52;;;;;;;-148.88;37.42;73959.72;4996208;28;20063;-84
2022/06/22 11:08:47;;;;;;;3.95;1.48;;;;;;;-148.88;37.30;73888.66;4998108;28;20037;-83
2022/06/22 11:11:32;;;;;;;3.65;1.48;;;;;;;-148.88;35.66;73890.69;4996988;28;20034;-84
2022/06/22 11:14:31;;;;;;;7.47;1.65;;;;;;;-148.88;35.33;73921.13;5013418;28;20029;-83
2022/06/22 11:17:08;;;;;;;3.53;1.40;;;;;;;-148.88;34.93;73904.88;4996930;28;20034;-83
2022/06/22 11:19:39;;;;;;;2.67;1.33;;;;;;;-148.88;34.06;73884.59;4997863;28;20030;-84
2022/06/22 11:22:28;;;;;;;3.92;1.20;;;;;;;-148.88;35.84;73817.59;4998288;28;20085;-84
2022/06/22 11:31:13;;;;;;;3.25;1.20;;;;;;;-148.88;33.67;73742.47;4999501;28;20042;-84
2022/06/22 11:34:00;;;;;;;3.92;1.52;;;;;;;-148.88;34.53;73734.34;5012935;28;20060;-84
2022/06/22 11:36:44;;;;;;;4.90;1.50;;;;;;;-148.88;33.30;73791.19;4998645;28;20077;-83
2022/06/22 11:39:29;;;;;;;2.40;1.10;;;;;;;-148.88;32.17;73699.84;4996935;28;20068;-84
2022/06/22 11:42:12;;;;;;;4.70;1.30;;;;;;;-148.88;32.33;73693.75;4995572;28;20065;-83
2022/06/22 11:48:03;;;;;;;2.45;1.50;;;;;;;-148.88;33.67;73705.94;4998032;28;20033;-83
2022/06/22 11:50:36;;;;;;;5.03;1.40;;;;;;;-148.88;31.88;73707.97;4995824;28;20073;-83
2022/06/22 11:53:10;;;;;;;3.15;1.30;;;;;;;-148.88;31.75;73728.25;4995258;28;20093;-84
2022/06/22 11:55:42;;;;;;;4.93;1.20;;;;;;;-148.88;32.80;73651.13;4997476;28;20026;-83
2022/06/22 11:58:46;;;;;;;3.13;1.10;;;;;;;-148.88;29.73;73744.50;4997804;28;20022;-85
2022/06/22 12:01:29;;;;;;;;;;;;;;;-148.88;31.39;73712.00;4999034;28;20080;-85
2022/06/22 12:03:57;;;;;;;3.65;1.42;;;;;;;-148.88;31.00;73685.63;4996748;28;19914;-85
2022/06/22 12:06:49;;;;;;;3.47;1.20;;;;;;;-148.88;31.52;73746.53;4995301;28;20030;-86
2022/06/22 12:09:48;;;;;;;3.67;1.20;;;;;;;-148.88;30.90;73685.63;4996462;28;20050;-83
2022/06/22 12:12:46;;;;;;;3.38;1.00;;;;;;;-148.88;31.17;73683.59;4997319;28;20030;-84
2022/06/22 12:15:39;;;;;;;3.95;1.20;;;;;;;-148.88;31.59;73655.16;4995873;28;20432;-84
2022/06/22 12:18:34;;;;;;;2.50;0.90;;;;;;;-148.88;30.55;73681.56;4999945;28;20023;-84
2022/06/22 12:21:22;;;;;;;4.50;1.52;;;;;;;-148.88;30.82;73640.97;4994766;28;20034;-84
2022/06/22 12:23:50;;;;;;;2.58;1.08;;;;;;;-148.88;31.06;73624.72;4995392;28;20124;-83
2022/06/22 12:26:24;;;;;;;3.80;1.20;;;;;;;-148.88;30.77;73584.13;4996511;28;20026;-83
2022/06/22 12:29:14;;;;;;;2.63;1.00;;;;;;;-148.88;30.49;73655.16;4997000;28;20030;-83
2022/06/22 12:31:47;;;;;;;2.75;1.10;;;;;;;-148.88;32.19;73638.94;4994897;28;20058;-83
2022/06/22 12:34:25;;;;;;;3.05;1.27;;;;;;;-148.88;30.09;73569.91;4995740;28;20022;-83
2022/06/22 12:36:59;;;;;;;2.60;1.17;;;;;;;-148.88;28.80;73569.91;4997694;28;20543;-84
2022/06/22 12:39:36;;;;;;;3.08;1.10;;;;;;;-148.88;30.70;73596.31;4995235;28;20081;-84